createdAt,value
2023-02-21T00:01:20.804Z,14.60
2023-02-21T00:04:32.821Z,13.82
2023-02-21T00:07:44.950Z,14.07
2023-02-21T00:10:56.809Z,14.30
2023-02-21T00:14:09.820Z,13.60
2023-02-21T00:17:21.801Z,15.60
2023-02-21T00:20:26.834Z,13.85
2023-02-21T00:23:24.831Z,14.57
2023-02-21T00:26:36.943Z,15.43
2023-02-21T00:29:42.873Z,15.13
2023-02-21T00:32:41.048Z,14.88
2023-02-21T00:35:45.847Z,14.25
2023-02-21T00:38:43.818Z,15.00
2023-02-21T00:41:48.808Z,15.40
2023-02-21T00:44:47.872Z,15.65
2023-02-21T00:47:52.838Z,14.85
2023-02-21T00:50:44.768Z,16.13
2023-02-21T00:53:50.827Z,15.45
2023-02-21T00:56:48.890Z,14.07
2023-02-21T01:00:00.830Z,14.65
2023-02-21T01:03:12.835Z,13.48
2023-02-21T01:06:26.885Z,15.18
2023-02-21T01:09:32.810Z,14.65
2023-02-21T01:12:30.837Z,17.30
2023-02-21T01:15:35.957Z,14.55
2023-02-21T01:18:34.840Z,16.30
2023-02-21T01:21:42.872Z,15.02
2023-02-21T01:24:44.845Z,14.23
2023-02-21T01:27:56.845Z,14.18
2023-02-21T01:31:01.937Z,14.93
2023-02-21T01:34:08.919Z,14.00
2023-02-21T01:37:20.853Z,14.45
2023-02-21T01:40:26.853Z,15.43
2023-02-21T01:43:18.492Z,14.43
2023-02-21T01:46:22.933Z,14.05
2023-02-21T01:49:17.481Z,14.27
2023-02-21T01:52:24.863Z,16.52
2023-02-21T01:55:26.928Z,15.77
2023-02-21T01:58:38.883Z,14.38
2023-02-21T02:01:52.962Z,14.15
2023-02-21T02:04:44.550Z,15.75
2023-02-21T02:07:49.911Z,14.48
2023-02-21T02:10:48.887Z,15.13
2023-02-21T02:14:06.852Z,15.30
2023-02-21T02:17:06.962Z,15.98
2023-02-21T02:20:08.893Z,16.42
2023-02-21T02:23:08.883Z,16.58
2023-02-21T02:26:01.864Z,15.13
2023-02-21T02:29:06.178Z,16.23
2023-02-21T02:31:55.964Z,16.40
2023-02-21T02:34:54.085Z,14.95
2023-02-21T02:37:58.859Z,15.32
2023-02-21T02:40:34.940Z,16.95
2023-02-21T02:43:42.869Z,17.42
2023-02-21T02:46:40.914Z,16.13
2023-02-21T02:49:31.874Z,16.98
2023-02-21T02:52:17.863Z,14.75
2023-02-21T02:55:13.883Z,14.57
2023-02-21T02:58:07.904Z,15.40
2023-02-21T03:01:18.935Z,16.67
2023-02-21T03:04:36.898Z,14.80
2023-02-21T03:07:36.502Z,15.15
2023-02-21T03:10:36.925Z,16.83
2023-02-21T03:13:58.893Z,15.63
2023-02-21T03:17:06.930Z,15.18
2023-02-21T03:19:55.958Z,14.70
2023-02-21T03:22:32.970Z,13.63
2023-02-21T03:25:21.871Z,14.65
2023-02-21T03:28:04.887Z,15.38
2023-02-21T03:30:48.870Z,16.90
2023-02-21T03:33:28.901Z,14.73
2023-02-21T03:36:05.044Z,14.85
2023-02-21T03:38:51.876Z,15.20
2023-02-21T03:41:25.098Z,14.75
2023-02-21T03:44:11.872Z,13.98
2023-02-21T03:46:45.004Z,13.30
2023-02-21T03:49:31.909Z,13.07
2023-02-21T03:52:05.112Z,14.23
2023-02-21T03:54:51.918Z,14.88
2023-02-21T03:57:25.018Z,15.98
2023-02-21T04:00:12.915Z,15.23
2023-02-21T04:02:46.050Z,14.57
2023-02-21T04:05:32.945Z,16.48
2023-02-21T04:08:10.058Z,13.52
2023-02-21T04:11:12.178Z,13.10
2023-02-21T04:14:05.909Z,14.10
2023-02-21T04:16:59.882Z,15.40
2023-02-21T04:19:46.901Z,13.23
2023-02-21T04:22:20.047Z,14.85
2023-02-21T04:25:06.926Z,13.55
2023-02-21T04:27:40.031Z,14.45
2023-02-21T04:30:26.954Z,13.82
2023-02-21T04:33:00.027Z,14.52
2023-02-21T04:35:46.907Z,13.10
2023-02-21T04:38:20.127Z,13.73
2023-02-21T04:41:06.906Z,13.63
2023-02-21T04:43:46.916Z,14.68
2023-02-21T04:46:40.959Z,15.43
2023-02-21T04:49:27.919Z,13.82
2023-02-21T04:52:01.018Z,13.98
2023-02-21T04:54:47.968Z,13.52
2023-02-21T04:57:23.111Z,12.98
2023-02-21T05:00:12.990Z,13.32
2023-02-21T05:02:50.069Z,12.57
2023-02-21T05:05:36.932Z,13.13
2023-02-21T05:08:10.018Z,12.43
2023-02-21T05:10:56.956Z,11.45
2023-02-21T05:13:30.026Z,13.50
2023-02-21T05:16:16.940Z,13.10
2023-02-21T05:18:52.028Z,11.70
2023-02-21T05:21:43.027Z,11.10
2023-02-21T05:24:22.985Z,11.77
2023-02-21T05:27:09.928Z,11.38
2023-02-21T05:29:49.908Z,11.70
2023-02-21T05:32:38.935Z,10.20
2023-02-21T05:35:13.118Z,11.98
2023-02-21T05:37:59.975Z,11.25
2023-02-21T05:40:33.049Z,11.70
2023-02-21T05:43:19.964Z,12.73
2023-02-21T05:45:59.995Z,8.82
2023-02-21T05:48:53.922Z,8.65
2023-02-21T05:51:45.988Z,12.43
2023-02-21T05:54:26.043Z,13.90
2023-02-21T05:57:12.945Z,13.73
2023-02-21T05:59:54.950Z,12.65
2023-02-21T06:02:48.960Z,13.90
2023-02-21T06:05:42.949Z,10.63
2023-02-21T06:08:37.017Z,10.48
2023-02-21T06:11:30.942Z,11.55
2023-02-21T06:14:30.960Z,12.60
2023-02-21T06:17:18.046Z,11.93
2023-02-21T06:19:57.960Z,12.77
2023-02-21T06:22:44.959Z,13.02
2023-02-21T06:25:25.990Z,14.10
2023-02-21T06:28:12.941Z,11.38
2023-02-21T06:30:46.263Z,13.75
2023-02-21T06:33:32.967Z,15.95
2023-02-21T06:36:18.004Z,12.18
2023-02-21T06:39:11.984Z,16.52
2023-02-21T06:42:05.962Z,15.63
2023-02-21T06:44:53.959Z,15.23
2023-02-21T06:47:27.119Z,13.05
2023-02-21T06:50:13.964Z,14.63
2023-02-21T06:52:53.968Z,12.75
2023-02-21T06:55:47.977Z,11.77
2023-02-21T06:58:34.963Z,15.82
2023-02-21T07:01:08.080Z,13.48
2023-02-21T07:03:54.976Z,12.88
2023-02-21T07:06:29.869Z,14.27
2023-02-21T07:09:09.980Z,14.80
2023-02-21T07:11:56.982Z,13.10
2023-02-21T07:14:50.994Z,15.13
2023-02-21T07:17:37.974Z,15.38
2023-02-21T07:20:11.096Z,14.02
2023-02-21T07:22:57.989Z,13.20
2023-02-21T07:25:31.114Z,15.18
2023-02-21T07:28:19.001Z,11.88
2023-02-21T07:30:59.012Z,12.60
2023-02-21T07:33:46.017Z,13.73
2023-02-21T07:36:19.134Z,15.55
2023-02-21T07:39:06.198Z,11.70
2023-02-21T07:41:39.047Z,13.50
2023-02-21T07:44:25.999Z,15.68
2023-02-21T07:46:59.119Z,14.23
2023-02-21T07:49:47.003Z,15.05
2023-02-21T07:52:26.990Z,13.85
2023-02-21T07:55:14.006Z,13.18
2023-02-21T07:57:54.003Z,13.88
2023-02-21T08:00:41.021Z,17.85
2023-02-21T08:03:22.997Z,17.75
2023-02-21T08:06:17.003Z,14.68
2023-02-21T08:09:10.995Z,13.52
2023-02-21T08:12:05.038Z,13.70
2023-02-21T08:14:52.027Z,14.05
2023-02-21T08:17:25.116Z,12.75
2023-02-21T08:20:14.010Z,11.88
2023-02-21T08:22:49.030Z,9.98
2023-02-21T08:25:36.000Z,11.35
2023-02-21T08:28:09.147Z,12.63
2023-02-21T08:30:56.018Z,11.13
2023-02-21T08:33:31.424Z,12.68
2023-02-21T08:36:20.007Z,12.07
2023-02-21T08:39:00.027Z,10.70
2023-02-21T08:41:49.992Z,12.98
2023-02-21T08:44:24.185Z,11.88
2023-02-21T08:47:11.016Z,11.27
2023-02-21T08:49:52.013Z,10.38
2023-02-21T08:52:46.019Z,11.88
2023-02-21T08:55:33.013Z,11.80
2023-02-21T08:58:14.003Z,11.85
2023-02-21T09:01:01.045Z,10.57
2023-02-21T09:03:41.003Z,11.48
2023-02-21T09:06:35.035Z,11.32
2023-02-21T09:09:22.022Z,11.00
2023-02-21T09:11:55.134Z,11.10
2023-02-21T09:14:43.023Z,10.80
2023-02-21T09:17:19.120Z,12.32
2023-02-21T09:20:13.030Z,11.43
2023-02-21T09:22:50.137Z,10.18
2023-02-21T09:25:37.033Z,11.90
2023-02-21T09:28:17.035Z,12.10
2023-02-21T09:31:11.129Z,11.75
2023-02-21T09:33:58.056Z,11.98
2023-02-21T09:36:31.132Z,11.10
2023-02-21T09:39:19.060Z,10.95
2023-02-21T09:41:53.595Z,10.55
2023-02-21T09:44:41.047Z,10.98
2023-02-21T09:47:24.028Z,10.30
2023-02-21T09:50:15.034Z,11.40
2023-02-21T09:52:56.029Z,12.68
2023-02-21T09:55:53.027Z,11.20
2023-02-21T09:58:51.061Z,10.55
2023-02-21T10:02:21.213Z,11.00
2023-02-21T10:05:09.053Z,11.75
2023-02-21T10:08:13.126Z,14.00
2023-02-21T10:11:05.064Z,10.20
2023-02-21T10:14:05.043Z,11.73
2023-02-21T10:17:26.051Z,10.70
2023-02-21T10:20:13.057Z,13.50
2023-02-21T10:23:08.045Z,12.60
2023-02-21T10:25:55.049Z,13.70
2023-02-21T10:28:31.212Z,13.85
2023-02-21T10:31:30.172Z,12.43
2023-02-21T10:34:10.045Z,13.07
2023-02-21T10:37:05.137Z,12.60
2023-02-21T10:39:57.052Z,10.57
2023-02-21T10:42:59.005Z,11.55
2023-02-21T10:46:12.077Z,11.40
2023-02-21T10:48:49.218Z,12.95
2023-02-21T10:51:40.185Z,12.20
2023-02-21T10:54:40.198Z,13.63
2023-02-21T10:57:34.062Z,14.35
2023-02-21T11:00:55.161Z,12.10
2023-02-21T11:03:31.511Z,13.52
2023-02-21T11:06:34.060Z,12.75
2023-02-21T11:09:16.071Z,12.32
2023-02-21T11:12:38.072Z,12.80
2023-02-21T11:15:34.193Z,13.00
2023-02-21T11:18:32.074Z,12.70
2023-02-21T11:21:21.039Z,13.55
2023-02-21T11:24:12.099Z,15.18
2023-02-21T11:27:07.131Z,14.60
2023-02-21T11:29:57.126Z,13.93
2023-02-21T11:32:42.081Z,16.47
2023-02-21T11:35:42.102Z,14.73
2023-02-21T11:38:43.127Z,15.57
2023-02-21T11:41:37.132Z,13.18
2023-02-21T11:44:38.258Z,13.27
2023-02-21T11:47:41.136Z,13.20
2023-02-21T11:50:15.024Z,15.98
2023-02-21T11:53:22.091Z,13.43
2023-02-21T11:56:09.178Z,14.43
2023-02-21T11:59:22.087Z,11.95
2023-02-21T12:02:40.160Z,13.63
2023-02-21T12:05:46.142Z,12.30
2023-02-21T12:08:53.128Z,13.93
2023-02-21T12:12:05.126Z,11.50
2023-02-21T12:15:16.094Z,12.60
2023-02-21T12:18:17.125Z,11.98
2023-02-21T12:21:23.134Z,13.93
2023-02-21T12:24:28.105Z,20.08
2023-02-21T12:27:46.153Z,29.92
2023-02-21T12:30:57.157Z,12.43
2023-02-21T12:34:00.197Z,14.98
2023-02-21T12:37:02.162Z,23.95
2023-02-21T12:39:56.258Z,14.27
2023-02-21T12:42:57.133Z,14.23
2023-02-21T12:46:11.150Z,14.18
2023-02-21T12:49:28.198Z,26.48
2023-02-21T12:52:30.142Z,15.25
2023-02-21T12:55:43.702Z,16.48
2023-02-21T12:58:49.145Z,15.90
2023-02-21T13:01:28.291Z,13.50
2023-02-21T13:04:40.167Z,13.48
2023-02-21T13:07:25.589Z,12.07
2023-02-21T13:10:31.139Z,11.60
2023-02-21T13:13:20.254Z,11.75
2023-02-21T13:16:19.164Z,11.32
2023-02-21T13:19:06.261Z,11.20
2023-02-21T13:22:02.148Z,12.88
2023-02-21T13:24:59.757Z,12.68
2023-02-21T13:27:52.169Z,16.35
2023-02-21T13:30:38.319Z,16.23
2023-02-21T13:33:57.130Z,15.02
2023-02-21T13:36:54.156Z,14.48
2023-02-21T13:39:44.161Z,11.05
2023-02-21T13:42:27.288Z,11.77
2023-02-21T13:45:28.159Z,12.80
2023-02-21T13:48:11.141Z,15.00
2023-02-21T13:51:01.133Z,12.10
2023-02-21T13:54:17.267Z,10.75
2023-02-21T13:56:59.138Z,11.18
2023-02-21T13:59:44.883Z,13.23
2023-02-21T14:03:07.261Z,11.80
2023-02-21T14:05:57.159Z,12.70
2023-02-21T14:08:37.163Z,12.20
2023-02-21T14:11:39.164Z,11.95
2023-02-21T14:14:43.168Z,13.10
2023-02-21T14:17:36.195Z,12.10
2023-02-21T14:20:10.302Z,11.20
2023-02-21T14:23:00.157Z,11.50
2023-02-21T14:25:48.223Z,11.32
2023-02-21T14:29:00.193Z,13.50
2023-02-21T14:32:25.247Z,14.00
2023-02-21T14:35:27.164Z,11.20
2023-02-21T14:38:12.291Z,11.77
2023-02-21T14:41:15.360Z,11.60
2023-02-21T14:43:51.280Z,12.73
2023-02-21T14:47:15.176Z,10.18
2023-02-21T14:50:19.231Z,10.15
2023-02-21T14:53:34.207Z,12.50
2023-02-21T14:56:20.501Z,10.65
2023-02-21T14:59:50.221Z,10.68
2023-02-21T15:02:54.397Z,13.45
2023-02-21T15:05:50.229Z,10.23
2023-02-21T15:08:26.377Z,10.10
2023-02-21T15:11:41.282Z,10.20
2023-02-21T15:14:38.202Z,10.07
2023-02-21T15:17:32.306Z,10.25
2023-02-21T15:20:31.157Z,10.65
2023-02-21T15:23:20.209Z,8.82
2023-02-21T15:26:05.329Z,8.88
2023-02-21T15:28:52.200Z,11.68
2023-02-21T15:31:32.255Z,14.68
2023-02-21T15:34:32.209Z,9.50
2023-02-21T15:37:39.245Z,12.90
2023-02-21T15:40:30.223Z,11.43
2023-02-21T15:43:03.314Z,10.55
2023-02-21T15:45:55.285Z,13.65
2023-02-21T15:48:29.354Z,13.60
2023-02-21T15:51:19.248Z,11.30
2023-02-21T15:54:24.537Z,10.45
2023-02-21T15:57:11.229Z,12.57
2023-02-21T15:59:53.235Z,12.63
2023-02-21T16:02:50.292Z,11.32
2023-02-21T16:05:39.238Z,12.95
2023-02-21T16:08:12.340Z,12.27
2023-02-21T16:11:09.229Z,12.07
2023-02-21T16:13:46.280Z,13.25
2023-02-21T16:16:33.236Z,12.77
2023-02-21T16:19:06.303Z,10.65
2023-02-21T16:21:53.278Z,12.77
2023-02-21T16:24:39.493Z,12.20
2023-02-21T16:27:26.211Z,12.75
2023-02-21T16:29:59.339Z,11.82
2023-02-21T16:32:48.207Z,12.98
2023-02-21T16:35:27.388Z,10.60
2023-02-21T16:38:20.246Z,9.85
2023-02-21T16:40:55.324Z,10.10
2023-02-21T16:43:42.274Z,10.30
2023-02-21T16:46:15.365Z,11.10
2023-02-21T16:49:03.256Z,9.25
2023-02-21T16:51:36.351Z,11.95
2023-02-21T16:54:25.277Z,11.57
2023-02-21T16:57:00.398Z,10.63
2023-02-21T16:59:47.233Z,12.48
2023-02-21T17:02:22.479Z,11.88
2023-02-21T17:05:10.261Z,13.90
2023-02-21T17:07:43.335Z,11.93
2023-02-21T17:10:31.236Z,12.88
2023-02-21T17:13:04.426Z,11.20
2023-02-21T17:15:55.286Z,13.27
2023-02-21T17:18:36.272Z,27.73
2023-02-21T17:21:23.288Z,26.42
2023-02-21T17:24:04.310Z,12.93
2023-02-21T17:26:52.271Z,16.85
2023-02-21T17:29:27.341Z,16.42
2023-02-21T17:32:16.297Z,13.75
2023-02-21T17:34:58.765Z,14.63
2023-02-21T17:37:57.254Z,16.17
2023-02-21T17:40:45.278Z,16.60
2023-02-21T17:43:25.312Z,24.17
2023-02-21T17:46:22.258Z,28.08
2023-02-21T17:49:09.286Z,26.70
2023-02-21T17:51:43.318Z,23.00
2023-02-21T17:54:31.277Z,23.95
2023-02-21T17:57:13.258Z,26.65
2023-02-21T18:00:07.281Z,41.05
2023-02-21T18:02:55.281Z,56.05
2023-02-21T18:05:30.321Z,54.22
2023-02-21T18:08:17.334Z,52.10
2023-02-21T18:10:51.365Z,41.88
2023-02-21T18:13:38.269Z,19.60
2023-02-21T18:16:11.355Z,16.45
2023-02-21T18:18:58.276Z,20.60
2023-02-21T18:21:38.267Z,20.42
2023-02-21T18:24:26.307Z,16.42
2023-02-21T18:27:06.278Z,16.92
2023-02-21T18:29:53.314Z,18.38
2023-02-21T18:32:26.381Z,16.92
2023-02-21T18:35:13.284Z,16.13
2023-02-21T18:37:47.227Z,16.75
2023-02-21T18:40:41.283Z,17.52
2023-02-21T18:43:14.406Z,16.45
2023-02-21T18:46:05.628Z,17.08
2023-02-21T18:48:39.418Z,23.90
2023-02-21T18:51:27.337Z,23.08
2023-02-21T18:54:00.375Z,16.08
2023-02-21T18:56:58.301Z,18.13
2023-02-21T18:59:39.299Z,18.45
2023-02-21T19:02:33.294Z,17.58
2023-02-21T19:05:35.447Z,17.70
2023-02-21T19:08:22.302Z,20.10
2023-02-21T19:10:55.458Z,15.98
2023-02-21T19:13:42.262Z,20.30
2023-02-21T19:16:15.425Z,19.45
2023-02-21T19:19:03.388Z,20.05
2023-02-21T19:21:37.374Z,18.15
2023-02-21T19:24:24.299Z,20.08
2023-02-21T19:27:04.304Z,18.52
2023-02-21T19:29:58.297Z,20.38
2023-02-21T19:32:45.305Z,20.05
2023-02-21T19:35:18.393Z,22.65
2023-02-21T19:38:08.331Z,43.92
2023-02-21T19:40:42.395Z,46.63
2023-02-21T19:43:31.606Z,32.30
2023-02-21T19:46:12.442Z,31.92
2023-02-21T19:49:09.293Z,31.50
2023-02-21T19:51:49.347Z,21.02
2023-02-21T19:54:43.343Z,22.40
2023-02-21T19:57:37.342Z,20.67
2023-02-21T20:00:24.291Z,21.55
2023-02-21T20:02:57.399Z,23.05
2023-02-21T20:05:44.313Z,22.77
2023-02-21T20:08:17.421Z,22.17
2023-02-21T20:11:04.294Z,19.17
2023-02-21T20:13:38.574Z,18.13
2023-02-21T20:16:26.318Z,17.10
2023-02-21T20:18:59.431Z,19.30
2023-02-21T20:21:47.378Z,21.42
2023-02-21T20:24:27.357Z,18.80
2023-02-21T20:27:14.347Z,17.08
2023-02-21T20:29:55.350Z,17.77
2023-02-21T20:32:49.360Z,14.35
2023-02-21T20:35:43.362Z,16.52
2023-02-21T20:38:37.368Z,17.30
2023-02-21T20:41:24.342Z,17.92
2023-02-21T20:43:57.529Z,15.48
2023-02-21T20:46:47.638Z,17.45
2023-02-21T20:49:21.494Z,20.88
2023-02-21T20:52:09.346Z,20.75
2023-02-21T20:54:42.454Z,19.80
2023-02-21T20:57:29.352Z,18.83
2023-02-21T21:00:08.933Z,21.67
2023-02-21T21:02:56.325Z,18.40
2023-02-21T21:05:30.464Z,18.83
2023-02-21T21:08:18.333Z,18.83
2023-02-21T21:10:58.331Z,19.90
2023-02-21T21:13:54.330Z,21.92
2023-02-21T21:16:42.328Z,21.75
2023-02-21T21:19:15.993Z,19.90
2023-02-21T21:22:02.332Z,20.98
2023-02-21T21:24:35.484Z,20.10
2023-02-21T21:27:22.337Z,21.75
2023-02-21T21:29:55.419Z,23.60
2023-02-21T21:32:42.314Z,23.80
2023-02-21T21:35:16.943Z,21.63
2023-02-21T21:38:04.340Z,22.55
2023-02-21T21:40:37.761Z,23.25
2023-02-21T21:43:24.352Z,30.05
2023-02-21T21:46:05.415Z,27.67
2023-02-21T21:48:52.337Z,22.45
2023-02-21T21:51:25.631Z,22.38
2023-02-21T21:54:12.364Z,20.95
2023-02-21T21:56:56.331Z,19.58
2023-02-21T21:59:50.354Z,19.35
2023-02-21T22:02:44.335Z,19.00
2023-02-21T22:05:43.353Z,20.80
2023-02-21T22:08:30.346Z,24.10
2023-02-21T22:11:03.614Z,26.63
2023-02-21T22:13:57.341Z,19.42
2023-02-21T22:16:56.336Z,25.85
2023-02-21T22:19:43.362Z,23.20
2023-02-21T22:22:16.493Z,26.95
2023-02-21T22:25:03.419Z,18.20
2023-02-21T22:27:36.452Z,23.38
2023-02-21T22:30:25.441Z,23.83
2023-02-21T22:32:59.538Z,24.52
2023-02-21T22:35:47.340Z,24.67
2023-02-21T22:38:28.337Z,20.88
2023-02-21T22:41:23.363Z,29.80
2023-02-21T22:43:58.518Z,25.15
2023-02-21T22:47:11.358Z,20.73
2023-02-21T22:49:44.441Z,26.90
2023-02-21T22:52:31.360Z,22.35
2023-02-21T22:55:04.455Z,23.00
2023-02-21T22:57:51.345Z,21.25
2023-02-21T23:00:34.357Z,24.63
2023-02-21T23:03:29.364Z,22.95
2023-02-21T23:06:23.374Z,22.42
2023-02-21T23:09:18.338Z,23.38
2023-02-21T23:12:05.429Z,27.33
2023-02-21T23:14:54.366Z,27.77
2023-02-21T23:17:27.441Z,26.77
2023-02-21T23:20:22.360Z,25.27
2023-02-21T23:23:00.485Z,22.58
2023-02-21T23:25:47.364Z,24.05
2023-02-21T23:28:29.379Z,27.15
2023-02-21T23:31:18.764Z,25.13
2023-02-21T23:34:00.388Z,25.23
2023-02-21T23:36:47.354Z,24.00
2023-02-21T23:39:27.376Z,24.23
2023-02-21T23:42:23.362Z,22.50
2023-02-21T23:45:10.375Z,28.08
2023-02-21T23:47:45.475Z,24.92
2023-02-21T23:50:37.394Z,26.80
2023-02-21T23:53:11.478Z,26.25
2023-02-21T23:56:04.378Z,25.10
2023-02-21T23:58:45.400Z,23.55
